San Pedro, San Pedro Airport (DISP)

NameSan Pedro Airport
CitySan Pedro
CountryCote d'Ivoire
ICAODISP
IATASPY
Altitude8 m
CoordinatesGoogle Map
Live Air TrafficLiveATC.net
METARDISP 131100Z 20006KT 4000 NSC BKN013 30/25 Q1011 NOSIG
2017-12-13 11:00:00 Wind: South (200°) 3.09 m/s - Visibility: 4000 m - Temperature: 30 °C - Dew point: 25 °C - Humidity: 74.6% - Pressure: 1011 hPa
Statistics

The table below shows the detailed information of all flights to/from San Pedro, San Pedro Airport (DISP).